createdAt,value
2023-01-30T00:02:12.219Z,40.87
2023-01-30T00:05:07.190Z,40.85
2023-01-30T00:08:01.222Z,40.97
2023-01-30T00:10:55.280Z,40.99
2023-01-30T00:13:51.016Z,41.09
2023-01-30T00:16:28.528Z,40.87
2023-01-30T00:19:22.237Z,40.89
2023-01-30T00:22:15.922Z,40.84
2023-01-30T00:25:11.395Z,40.90
2023-01-30T00:28:05.975Z,40.99
2023-01-30T00:31:00.658Z,40.97
2023-01-30T00:33:54.464Z,40.95
2023-01-30T00:36:55.993Z,41.13
2023-01-30T00:40:00.736Z,40.90
2023-01-30T00:46:38.513Z,40.89
2023-01-30T00:49:32.786Z,41.05
2023-01-30T00:52:27.473Z,40.63
2023-01-30T00:55:21.406Z,40.65
2023-01-30T00:58:15.432Z,40.82
2023-01-30T01:01:09.345Z,40.79
2023-01-30T01:04:02.996Z,40.58
2023-01-30T01:06:56.705Z,40.65
2023-01-30T01:09:50.334Z,40.60
2023-01-30T01:12:24.106Z,40.62
2023-01-30T01:15:18.598Z,40.44
2023-01-30T01:18:12.542Z,40.31
2023-01-30T01:21:06.482Z,40.65
2023-01-30T01:23:43.053Z,40.75
2023-01-30T01:26:37.745Z,40.61
2023-01-30T01:29:34.427Z,40.59
2023-01-30T01:32:28.197Z,40.47
2023-01-30T01:35:22.398Z,40.68
2023-01-30T01:38:16.134Z,40.54
2023-01-30T01:41:11.273Z,40.51
2023-01-30T01:44:09.213Z,40.65
2023-01-30T01:47:03.054Z,40.75
2023-01-30T01:49:57.916Z,40.68
2023-01-30T01:52:54.969Z,40.63
2023-01-30T01:55:53.778Z,40.50
2023-01-30T01:58:53.687Z,40.53
2023-01-30T02:01:48.451Z,40.38
2023-01-30T02:05:02.765Z,40.71
2023-01-30T02:08:18.658Z,40.71
2023-01-30T02:11:19.216Z,40.59
2023-01-30T02:14:14.968Z,40.56
2023-01-30T02:17:08.747Z,40.26
2023-01-30T02:20:13.135Z,40.35
2023-01-30T02:23:55.182Z,40.71
2023-01-30T02:27:04.469Z,40.46
2023-01-30T02:30:29.473Z,40.44
2023-01-30T02:33:33.682Z,40.32
2023-01-30T02:36:31.036Z,40.54
2023-01-30T02:39:34.458Z,40.75
2023-01-30T02:42:35.783Z,40.84
2023-01-30T02:45:37.077Z,40.68
2023-01-30T02:48:41.128Z,40.50
2023-01-30T02:51:38.644Z,40.58
2023-01-30T02:54:32.226Z,40.82
2023-01-30T02:57:27.743Z,40.82
2023-01-30T03:00:29.559Z,40.53
2023-01-30T03:03:41.522Z,40.65
2023-01-30T03:07:03.979Z,40.58
2023-01-30T03:10:08.617Z,40.64
2023-01-30T03:13:12.150Z,40.52
2023-01-30T03:16:12.109Z,40.70
2023-01-30T03:19:10.630Z,40.54
2023-01-30T03:22:04.534Z,40.68
2023-01-30T03:24:58.354Z,40.39
2023-01-30T03:27:54.946Z,40.56
2023-01-30T03:30:48.868Z,40.51
2023-01-30T03:33:42.892Z,40.59
2023-01-30T03:36:36.890Z,40.48
2023-01-30T03:39:30.579Z,40.62
2023-01-30T03:42:24.499Z,40.52
2023-01-30T03:45:18.782Z,40.70
2023-01-30T03:48:12.730Z,40.67
2023-01-30T03:51:07.084Z,40.64
2023-01-30T03:54:00.835Z,40.70
2023-01-30T03:56:54.620Z,40.68
2023-01-30T03:59:48.366Z,40.61
2023-01-30T04:02:42.177Z,40.51
2023-01-30T04:05:36.167Z,40.74
2023-01-30T04:08:29.907Z,40.73
2023-01-30T04:11:23.685Z,40.80
2023-01-30T04:14:17.434Z,40.65
2023-01-30T04:17:11.090Z,40.69
2023-01-30T04:20:05.290Z,40.76
2023-01-30T04:23:00.117Z,40.87
2023-01-30T04:25:53.796Z,40.79
2023-01-30T04:28:47.481Z,40.79
2023-01-30T04:31:41.501Z,40.97
2023-01-30T04:34:35.202Z,40.92
2023-01-30T04:37:29.185Z,40.78
2023-01-30T04:40:23.231Z,41.01
2023-01-30T04:43:16.978Z,40.86
2023-01-30T04:46:10.687Z,41.04
2023-01-30T04:49:04.410Z,40.96
2023-01-30T04:51:58.003Z,40.91
2023-01-30T04:54:52.431Z,40.91
2023-01-30T04:57:46.271Z,40.78
2023-01-30T05:00:40.027Z,40.88
2023-01-30T05:03:33.792Z,40.95
2023-01-30T05:06:28.022Z,40.90
2023-01-30T05:09:21.979Z,40.91
2023-01-30T05:12:15.699Z,41.07
2023-01-30T05:15:11.547Z,41.00
2023-01-30T05:18:05.375Z,41.08
2023-01-30T05:21:08.743Z,40.80
2023-01-30T05:24:02.798Z,40.89
2023-01-30T05:26:56.503Z,40.96
2023-01-30T05:29:50.197Z,40.77
2023-01-30T05:32:43.878Z,40.94
2023-01-30T05:35:37.570Z,40.88
2023-01-30T05:38:16.498Z,40.86
2023-01-30T05:41:11.858Z,41.04
2023-01-30T05:44:05.624Z,40.84
2023-01-30T05:46:59.378Z,40.96
2023-01-30T05:49:53.031Z,40.87
2023-01-30T05:52:46.792Z,41.18
2023-01-30T05:55:40.535Z,40.85
2023-01-30T05:58:34.644Z,40.94
2023-01-30T06:01:30.461Z,41.17
2023-01-30T06:04:24.188Z,40.97
2023-01-30T06:07:18.192Z,40.95
2023-01-30T06:10:13.953Z,41.11
2023-01-30T06:13:07.814Z,41.01
2023-01-30T06:16:01.635Z,40.95
2023-01-30T06:18:55.336Z,41.18
2023-01-30T06:21:49.260Z,41.16
2023-01-30T06:24:43.014Z,41.25
2023-01-30T06:27:37.036Z,41.45
2023-01-30T06:30:31.061Z,40.88
2023-01-30T06:33:25.010Z,40.76
2023-01-30T06:36:18.777Z,40.96
2023-01-30T06:39:12.759Z,40.98
2023-01-30T06:42:07.195Z,40.99
2023-01-30T06:45:00.929Z,41.08
2023-01-30T06:47:56.601Z,41.20
2023-01-30T06:50:51.769Z,40.95
2023-01-30T06:53:45.683Z,41.08
2023-01-30T06:56:39.684Z,41.12
2023-01-30T06:59:33.366Z,41.62
2023-01-30T07:02:27.170Z,41.27
2023-01-30T07:05:21.207Z,41.21
2023-01-30T07:08:15.712Z,41.16
2023-01-30T07:11:10.440Z,41.01
2023-01-30T07:14:06.228Z,41.16
2023-01-30T07:17:00.442Z,41.03
2023-01-30T07:19:54.234Z,41.14
2023-01-30T07:22:53.573Z,41.03
2023-01-30T07:25:47.475Z,41.16
2023-01-30T07:28:41.297Z,41.39
2023-01-30T07:31:34.999Z,41.18
2023-01-30T07:34:29.065Z,41.10
2023-01-30T07:37:22.803Z,41.00
2023-01-30T07:40:18.480Z,41.10
2023-01-30T07:43:14.973Z,41.26
2023-01-30T07:46:08.853Z,41.20
2023-01-30T07:49:02.707Z,40.93
2023-01-30T07:51:41.358Z,41.04
2023-01-30T07:54:35.184Z,41.04
2023-01-30T07:57:29.255Z,41.12
2023-01-30T08:00:24.374Z,41.14
2023-01-30T08:03:19.467Z,41.26
2023-01-30T08:06:14.592Z,41.28
2023-01-30T08:09:09.049Z,41.15
2023-01-30T08:12:02.814Z,41.09
2023-01-30T08:14:56.528Z,41.28
2023-01-30T08:17:58.393Z,41.74
2023-01-30T08:20:52.286Z,41.62
2023-01-30T08:23:46.022Z,41.59
2023-01-30T08:26:39.823Z,41.84
2023-01-30T08:29:34.453Z,42.32
2023-01-30T08:32:28.158Z,42.35
2023-01-30T08:35:22.207Z,42.32
2023-01-30T08:38:16.526Z,42.63
2023-01-30T08:41:11.136Z,42.45
2023-01-30T08:44:04.959Z,41.72
2023-01-30T08:46:58.689Z,43.63
2023-01-30T08:49:53.033Z,41.09
2023-01-30T08:52:46.818Z,40.63
2023-01-30T08:55:40.933Z,41.31
2023-01-30T08:58:34.638Z,40.97
2023-01-30T09:01:28.593Z,40.81
2023-01-30T09:04:24.928Z,41.03
2023-01-30T09:07:19.169Z,39.82
2023-01-30T09:10:14.620Z,43.66
2023-01-30T09:13:11.462Z,41.40
2023-01-30T09:16:07.021Z,40.63
2023-01-30T09:19:00.814Z,40.94
2023-01-30T09:21:55.357Z,42.48
2023-01-30T09:24:49.129Z,42.50
2023-01-30T09:27:44.585Z,42.61
2023-01-30T09:30:38.626Z,42.16
2023-01-30T09:33:32.620Z,41.56
2023-01-30T09:36:26.637Z,40.99
2023-01-30T09:39:20.658Z,42.25
2023-01-30T09:42:38.071Z,42.95
2023-01-30T09:45:50.278Z,43.59
2023-01-30T09:48:57.966Z,43.52
2023-01-30T09:52:04.713Z,43.75
2023-01-30T09:55:03.718Z,43.65
2023-01-30T09:58:00.502Z,44.04
2023-01-30T10:01:03.838Z,43.63
2023-01-30T10:04:13.205Z,43.58
2023-01-30T10:07:24.931Z,43.20
2023-01-30T10:10:22.284Z,43.30
2023-01-30T10:13:34.659Z,43.21
2023-01-30T10:16:36.261Z,43.01
2023-01-30T10:19:51.052Z,42.91
2023-01-30T10:22:49.381Z,42.94
2023-01-30T10:25:50.306Z,42.77
2023-01-30T10:29:06.793Z,42.99
2023-01-30T10:32:11.568Z,42.96
2023-01-30T10:35:18.347Z,42.72
2023-01-30T10:38:22.117Z,42.63
2023-01-30T10:41:25.259Z,42.77
2023-01-30T10:44:20.093Z,42.73
2023-01-30T10:47:48.069Z,42.71
2023-01-30T10:51:00.961Z,42.72
2023-01-30T10:54:02.300Z,42.70
2023-01-30T10:57:04.781Z,42.80
2023-01-30T11:00:05.015Z,42.61
2023-01-30T11:03:10.934Z,42.46
2023-01-30T11:06:12.090Z,42.73
2023-01-30T11:09:05.844Z,42.35
2023-01-30T11:12:00.368Z,42.38
2023-01-30T11:15:04.082Z,42.57
2023-01-30T11:18:41.330Z,42.59
2023-01-30T11:21:48.892Z,42.12
2023-01-30T11:24:46.544Z,42.31
2023-01-30T11:27:43.235Z,42.74
2023-01-30T11:30:39.623Z,42.64
2023-01-30T11:33:40.864Z,42.40
2023-01-30T11:36:36.750Z,42.36
2023-01-30T11:39:34.702Z,42.49
2023-01-30T11:42:50.802Z,42.36
2023-01-30T11:45:49.668Z,42.37
2023-01-30T11:49:32.144Z,42.21
2023-01-30T11:52:12.409Z,42.17
2023-01-30T11:54:53.652Z,42.29
2023-01-30T11:57:53.848Z,42.20
2023-01-30T12:00:50.319Z,42.11
2023-01-30T12:03:54.739Z,41.88
2023-01-30T12:07:08.991Z,41.85
2023-01-30T12:10:02.825Z,41.99
2023-01-30T12:12:59.838Z,41.78
2023-01-30T12:16:03.635Z,41.57
2023-01-30T12:19:07.418Z,41.47
2023-01-30T12:22:15.224Z,41.31
2023-01-30T12:25:20.204Z,41.12
2023-01-30T12:28:25.754Z,41.18
2023-01-30T12:31:25.780Z,41.05
2023-01-30T12:34:20.877Z,40.94
2023-01-30T12:37:40.811Z,40.92
2023-01-30T12:41:12.065Z,41.30
2023-01-30T12:44:38.525Z,41.16
2023-01-30T12:48:18.058Z,41.37
2023-01-30T12:51:26.824Z,40.87
2023-01-30T12:54:37.995Z,40.67
2023-01-30T12:57:42.403Z,40.71
2023-01-30T13:00:55.876Z,40.64
2023-01-30T13:03:59.552Z,40.69
2023-01-30T13:07:15.914Z,40.57
2023-01-30T13:10:24.324Z,40.60
2023-01-30T13:13:30.990Z,40.72
2023-01-30T13:16:33.971Z,40.88
2023-01-30T13:19:41.253Z,40.64
2023-01-30T13:22:48.255Z,40.50
2023-01-30T13:25:48.399Z,40.46
2023-01-30T13:28:48.788Z,40.43
2023-01-30T13:32:06.500Z,40.55
2023-01-30T13:35:02.952Z,40.46
2023-01-30T13:37:58.431Z,40.58
2023-01-30T13:41:14.675Z,40.45
2023-01-30T13:44:22.528Z,40.50
2023-01-30T13:47:33.599Z,40.52
2023-01-30T13:50:42.833Z,40.42
2023-01-30T13:53:44.658Z,40.50
2023-01-30T13:56:45.969Z,40.51
2023-01-30T14:00:22.359Z,40.52
2023-01-30T14:03:37.986Z,40.46
2023-01-30T14:06:41.241Z,40.54
2023-01-30T14:09:35.397Z,40.63
2023-01-30T14:12:37.373Z,40.20
2023-01-30T14:15:32.105Z,40.14
2023-01-30T14:18:33.726Z,40.23
2023-01-30T14:21:28.826Z,40.34
2023-01-30T14:24:25.656Z,40.56
2023-01-30T14:27:32.076Z,42.02
2023-01-30T14:30:49.429Z,41.99
2023-01-30T14:33:54.377Z,41.61
2023-01-30T14:36:53.552Z,41.96
2023-01-30T14:40:29.637Z,42.94
2023-01-30T14:43:54.396Z,43.39
2023-01-30T14:46:57.925Z,42.38
2023-01-30T14:49:53.677Z,42.74
2023-01-30T14:52:50.723Z,44.02
2023-01-30T14:55:45.089Z,43.18
2023-01-30T14:58:39.930Z,43.09
2023-01-30T15:04:45.432Z,42.82
2023-01-30T15:07:46.688Z,42.90
2023-01-30T15:11:15.998Z,42.24
2023-01-30T15:14:18.798Z,43.02
2023-01-30T15:17:29.116Z,43.80
2023-01-30T15:20:39.311Z,43.84
2023-01-30T15:23:56.131Z,42.61
2023-01-30T15:27:06.986Z,42.86
2023-01-30T15:30:37.300Z,43.37
2023-01-30T15:33:32.529Z,43.34
2023-01-30T15:36:33.186Z,42.90
2023-01-30T15:39:29.724Z,42.88
2023-01-30T15:42:16.298Z,42.80
2023-01-30T15:45:20.224Z,42.70
2023-01-30T15:48:40.573Z,42.39
2023-01-30T15:51:36.073Z,42.18
2023-01-30T15:54:30.133Z,42.30
2023-01-30T15:57:30.847Z,41.50
2023-01-30T16:00:33.092Z,41.56
2023-01-30T16:03:31.784Z,41.42
2023-01-30T16:06:34.747Z,42.28
2023-01-30T16:09:30.017Z,42.66
2023-01-30T16:12:32.094Z,42.79
2023-01-30T16:15:35.166Z,42.60
2023-01-30T16:18:39.852Z,43.10
2023-01-30T16:21:37.799Z,42.31
2023-01-30T16:24:35.405Z,42.14
2023-01-30T16:27:33.810Z,42.11
2023-01-30T16:30:32.208Z,42.11
2023-01-30T16:33:26.843Z,42.22
2023-01-30T16:36:39.802Z,42.15
2023-01-30T16:39:36.676Z,42.06
2023-01-30T16:42:32.225Z,41.90
2023-01-30T16:46:22.481Z,41.97
2023-01-30T16:49:21.980Z,41.90
2023-01-30T16:52:29.377Z,41.87
2023-01-30T16:55:27.145Z,41.98
2023-01-30T16:58:21.318Z,41.67
2023-01-30T17:01:16.038Z,41.60
2023-01-30T17:04:21.845Z,42.03
2023-01-30T17:07:39.251Z,41.76
2023-01-30T17:10:59.471Z,41.93
2023-01-30T17:14:20.755Z,41.73
2023-01-30T17:17:19.039Z,41.48
2023-01-30T17:20:16.329Z,41.57
2023-01-30T17:23:20.568Z,41.60
2023-01-30T17:26:14.755Z,41.55
2023-01-30T17:29:23.145Z,41.58
2023-01-30T17:32:20.695Z,41.43
2023-01-30T17:35:15.991Z,41.40
2023-01-30T17:38:11.968Z,41.19
2023-01-30T17:41:08.104Z,41.31
2023-01-30T17:44:02.236Z,41.56
2023-01-30T17:46:56.119Z,41.47
2023-01-30T17:49:50.300Z,41.30
2023-01-30T17:52:44.520Z,41.27
2023-01-30T17:55:39.566Z,41.11
2023-01-30T17:58:35.156Z,41.20
2023-01-30T18:01:29.208Z,41.12
2023-01-30T18:04:23.675Z,40.98
2023-01-30T18:07:18.040Z,41.30
2023-01-30T18:10:18.879Z,40.94
2023-01-30T18:13:13.228Z,40.96
2023-01-30T18:16:08.329Z,41.48
2023-01-30T18:19:05.514Z,41.13
2023-01-30T18:22:00.069Z,40.94
2023-01-30T18:24:54.053Z,41.01
2023-01-30T18:27:48.733Z,41.28
2023-01-30T18:30:43.305Z,40.97
2023-01-30T18:33:41.029Z,41.01
2023-01-30T18:36:36.333Z,41.26
2023-01-30T18:39:31.900Z,40.73
2023-01-30T18:42:26.657Z,41.14
2023-01-30T18:45:06.701Z,41.00
2023-01-30T18:48:00.831Z,40.91
2023-01-30T18:50:54.670Z,41.32
2023-01-30T18:53:50.613Z,40.99
2023-01-30T18:56:44.447Z,41.23
2023-01-30T18:59:39.982Z,41.11
2023-01-30T19:02:34.047Z,40.86
2023-01-30T19:05:28.333Z,40.94
2023-01-30T19:08:23.313Z,41.19
2023-01-30T19:11:37.486Z,41.04
2023-01-30T19:14:31.391Z,40.87
2023-01-30T19:17:25.381Z,40.95
2023-01-30T19:20:22.334Z,40.99
2023-01-30T19:23:17.994Z,41.19
2023-01-30T19:26:12.346Z,41.12
2023-01-30T19:29:06.526Z,41.02
2023-01-30T19:32:01.585Z,41.21
2023-01-30T19:34:55.561Z,41.11
2023-01-30T19:37:49.438Z,41.25
2023-01-30T19:40:47.864Z,41.49
2023-01-30T19:43:43.158Z,41.23
2023-01-30T19:46:37.495Z,41.39
2023-01-30T19:49:33.505Z,41.53
2023-01-30T19:52:28.967Z,41.63
2023-01-30T19:55:23.463Z,41.42
2023-01-30T19:58:17.628Z,41.51
2023-01-30T20:01:14.306Z,41.20
2023-01-30T20:04:08.546Z,41.49
2023-01-30T20:07:02.694Z,41.55
2023-01-30T20:09:56.757Z,41.74
2023-01-30T20:12:50.843Z,41.26
2023-01-30T20:15:45.426Z,41.42
2023-01-30T20:18:40.476Z,41.76
2023-01-30T20:21:37.129Z,41.44
2023-01-30T20:24:31.677Z,41.58
2023-01-30T20:27:25.374Z,41.66
2023-01-30T20:30:20.629Z,41.62
2023-01-30T20:33:16.590Z,41.46
2023-01-30T20:36:15.853Z,41.64
2023-01-30T20:39:10.421Z,41.59
2023-01-30T20:42:04.939Z,41.44
2023-01-30T20:44:59.473Z,41.53
2023-01-30T20:47:53.666Z,41.45
2023-01-30T20:50:48.332Z,41.17
2023-01-30T20:53:51.687Z,41.52
2023-01-30T20:56:48.961Z,41.56
2023-01-30T20:59:45.226Z,41.48
2023-01-30T21:02:39.404Z,41.57
2023-01-30T21:05:34.102Z,41.49
2023-01-30T21:08:28.936Z,41.55
2023-01-30T21:11:24.117Z,41.81
2023-01-30T21:14:19.342Z,41.77
2023-01-30T21:17:13.338Z,41.83
2023-01-30T21:20:08.093Z,41.91
2023-01-30T21:23:01.900Z,41.75
2023-01-30T21:25:56.588Z,41.95
2023-01-30T21:28:51.340Z,41.94
2023-01-30T21:31:47.003Z,41.96
2023-01-30T21:34:41.530Z,41.94
2023-01-30T21:37:54.097Z,42.00
2023-01-30T21:41:12.576Z,41.97
2023-01-30T21:44:09.409Z,42.04
2023-01-30T21:47:03.650Z,42.02
2023-01-30T21:49:59.479Z,41.97
2023-01-30T21:52:54.132Z,42.02
2023-01-30T21:55:54.177Z,41.94
2023-01-30T21:58:47.909Z,41.93
2023-01-30T22:01:42.762Z,42.01
2023-01-30T22:04:38.840Z,41.90
2023-01-30T22:07:33.327Z,41.84
2023-01-30T22:10:27.159Z,42.17
2023-01-30T22:13:21.423Z,42.14
2023-01-30T22:16:17.774Z,41.81
2023-01-30T22:19:32.723Z,41.93
2023-01-30T22:22:27.893Z,42.11
2023-01-30T22:25:22.235Z,42.05
2023-01-30T22:28:16.303Z,41.95
2023-01-30T22:31:13.201Z,42.06
2023-01-30T22:34:07.433Z,42.05
2023-01-30T22:37:02.283Z,42.00
2023-01-30T22:39:56.296Z,42.20
2023-01-30T22:42:51.865Z,42.16
2023-01-30T22:45:45.799Z,41.99
2023-01-30T22:48:40.825Z,41.89
2023-01-30T22:51:37.243Z,41.91
2023-01-30T22:54:31.401Z,41.88
2023-01-30T22:57:25.212Z,41.87
2023-01-30T23:00:19.962Z,41.68
2023-01-30T23:03:13.814Z,41.62
2023-01-30T23:06:10.460Z,41.76
2023-01-30T23:09:06.210Z,41.79
2023-01-30T23:12:19.509Z,41.76
2023-01-30T23:14:56.210Z,41.67
2023-01-30T23:18:07.668Z,41.61
2023-01-30T23:21:02.471Z,41.63
2023-01-30T23:23:59.378Z,41.47
2023-01-30T23:26:54.448Z,41.46
2023-01-30T23:29:48.413Z,41.52
2023-01-30T23:32:42.394Z,41.56
2023-01-30T23:35:37.790Z,41.59
2023-01-30T23:38:32.335Z,41.46
2023-01-30T23:41:29.366Z,41.51
2023-01-30T23:44:23.976Z,41.49
2023-01-30T23:47:18.152Z,41.40
2023-01-30T23:50:14.564Z,41.32
2023-01-30T23:53:10.495Z,41.45
2023-01-30T23:56:07.952Z,41.49
2023-01-30T23:59:02.499Z,41.47
